Time;durP1;ratioP1;P1;durP2;ratioP2;P2;SDS_P1;SDS_P2;PMS_P1;PMS_P2;Temp;Humidity;BMP_temperature;BMP_pressure;BME280_temperature;BME280_humidity;BME280_pressure;Samples;Min_cycle;Max_cycle;Signal;HPM_P1;HPM_P2
2023/01/01 00:00:08;;;;;;;13.97;2.90;;;;;;;15.86;53.80;100664.59;4906987;29;20123;-81
2023/01/01 00:02:33;;;;;;;10.98;3.13;;;;;;;15.89;53.40;100710.59;4940127;29;20039;-82
2023/01/01 00:04:59;;;;;;;16.73;2.47;;;;;;;15.87;53.50;100669.81;4923027;29;20539;-83
2023/01/01 00:07:24;;;;;;;13.90;3.07;;;;;;;15.87;53.58;100674.44;4922467;29;20484;-83
2023/01/01 00:12:34;;;;;;;13.47;2.43;;;;;;;15.76;53.79;100707.09;4925386;29;20086;-82
2023/01/01 00:14:59;;;;;;;15.38;2.90;;;;;;;15.72;53.55;100694.19;4922519;29;20131;-82
2023/01/01 00:17:25;;;;;;;12.50;2.57;;;;;;;15.69;53.43;100700.16;4922114;29;20123;-83
2023/01/01 00:19:50;;;;;;;8.93;2.27;;;;;;;15.71;52.97;100709.78;4922317;29;20039;-82
2023/01/01 00:22:17;;;;;;;15.43;2.53;;;;;;;15.66;53.08;100687.00;4922388;29;20039;-82
2023/01/01 00:24:42;;;;;;;15.10;2.73;;;;;;;15.72;52.28;100725.13;4922140;29;20035;-82
2023/01/01 00:27:08;;;;;;;9.65;2.05;;;;;;;15.77;52.26;100707.94;4906495;29;20392;-81
2023/01/01 00:29:33;;;;;;;14.07;2.60;;;;;;;15.71;52.65;100700.75;4906344;29;20183;-82
2023/01/01 00:31:58;;;;;;;7.43;2.40;;;;;;;15.57;53.50;100673.75;4922471;29;20043;-82
2023/01/01 00:34:24;;;;;;;7.87;2.53;;;;;;;15.43;53.95;100686.16;4890720;29;20031;-82
2023/01/01 00:36:49;;;;;;;15.30;2.73;;;;;;;15.16;55.67;100703.25;4939253;29;20456;-82
2023/01/01 00:39:15;;;;;;;9.60;2.47;;;;;;;15.12;56.05;100684.84;4906482;29;20282;-82
2023/01/01 00:41:40;;;;;;;5.80;2.57;;;;;;;14.95;57.25;100695.81;4922107;29;20456;-82
2023/01/01 00:44:06;;;;;;;14.77;2.97;;;;;;;14.91;57.05;100690.00;4907060;29;20122;-82
2023/01/01 00:46:31;;;;;;;7.88;2.55;;;;;;;15.04;56.11;100699.78;4890562;29;20028;-82
2023/01/01 00:48:57;;;;;;;12.03;3.13;;;;;;;15.20;55.22;100687.19;4921736;29;20187;-82
2023/01/01 00:51:22;;;;;;;9.13;2.37;;;;;;;15.35;54.61;100676.47;4905946;29;20032;-83
2023/01/01 00:53:47;;;;;;;10.70;2.90;;;;;;;15.42;54.15;100676.28;4938533;29;20083;-82
2023/01/01 00:56:15;;;;;;;10.43;2.38;;;;;;;15.43;54.11;100677.97;4921321;29;20030;-82
2023/01/01 00:58:41;;;;;;;13.20;2.43;;;;;;;15.43;53.78;100689.72;4921376;29;20038;-82
2023/01/01 01:01:06;;;;;;;11.90;2.22;;;;;;;15.52;53.19;100711.16;4905487;29;20024;-82
2023/01/01 01:03:31;;;;;;;11.23;2.43;;;;;;;15.50;53.93;100716.88;4921454;29;20031;-82
2023/01/01 01:06:01;;;;;;;16.00;3.13;;;;;;;15.42;53.99;100685.31;4938279;29;20035;-82
2023/01/01 01:08:26;;;;;;;8.85;2.30;;;;;;;15.40;54.00;100706.63;4921472;29;20032;-82
2023/01/01 01:10:52;;;;;;;9.00;2.07;;;;;;;15.42;53.97;100698.16;4889871;29;20388;-82
2023/01/01 01:13:19;;;;;;;9.32;2.10;;;;;;;15.42;54.18;100715.38;4921288;29;20028;-82
2023/01/01 01:15:44;;;;;;;10.65;2.35;;;;;;;15.40;54.42;100694.88;4920883;29;20048;-83
2023/01/01 01:18:10;;;;;;;11.40;2.45;;;;;;;15.41;54.65;100699.22;4921279;29;20028;-82
2023/01/01 01:20:36;;;;;;;6.43;1.87;;;;;;;15.41;54.67;100694.63;4921061;29;20028;-83
2023/01/01 01:23:01;;;;;;;7.27;2.10;;;;;;;15.38;54.79;100700.59;4938308;29;20114;-82
2023/01/01 01:25:27;;;;;;;9.85;2.08;;;;;;;15.34;55.09;100695.84;4920892;29;20139;-83
2023/01/01 01:27:52;;;;;;;7.67;2.10;;;;;;;15.30;54.79;100720.13;4906244;29;20050;-83
2023/01/01 01:30:23;;;;;;;6.57;2.23;;;;;;;15.21;54.95;100718.91;4905912;29;20039;-82
2023/01/01 01:32:48;;;;;;;9.52;1.98;;;;;;;15.22;54.65;100756.06;4889438;29;20036;-82
2023/01/01 01:35:14;;;;;;;10.37;1.80;;;;;;;15.24;54.47;100726.59;4921021;29;20038;-82
2023/01/01 01:37:39;;;;;;;7.67;2.10;;;;;;;15.19;54.47;100712.84;4938024;29;20032;-83
2023/01/01 01:40:06;;;;;;;6.35;1.75;;;;;;;15.19;54.37;100721.03;4920737;29;20027;-83
2023/01/01 01:42:31;;;;;;;10.37;2.20;;;;;;;15.12;54.37;100720.38;4920451;29;20035;-83
2023/01/01 01:44:59;;;;;;;9.57;2.08;;;;;;;15.11;54.57;100718.75;4920416;29;20380;-82
2023/01/01 01:47:44;;;;;;;6.38;1.85;;;;;;;15.06;54.46;100708.56;4938247;29;20035;-82
2023/01/01 01:50:21;;;;;;;11.03;1.80;;;;;;;15.00;54.80;100724.03;4921045;29;20038;-82
2023/01/01 01:53:10;;;;;;;9.93;1.98;;;;;;;15.00;54.88;100715.00;4920661;29;20028;-82
2023/01/01 01:55:47;;;;;;;9.20;2.22;;;;;;;14.94;55.31;100743.31;4921629;29;20114;-83
2023/01/01 01:58:15;;;;;;;8.40;1.90;;;;;;;14.88;55.31;100742.38;4920866;29;20401;-83
2023/01/01 02:00:40;;;;;;;12.05;1.80;;;;;;;14.86;54.92;100745.38;4937607;29;20035;-83
2023/01/01 02:03:17;;;;;;;9.20;2.40;;;;;;;14.89;55.60;100731.22;4920407;29;20031;-82
2023/01/01 02:05:43;;;;;;;7.25;1.73;;;;;;;14.80;55.42;100731.88;4920665;29;20484;-82
2023/01/01 02:08:10;;;;;;;8.67;2.07;;;;;;;14.78;55.60;100762.19;4920068;29;20058;-83
2023/01/01 02:10:36;;;;;;;7.93;2.00;;;;;;;14.73;55.43;100748.41;4920234;29;20279;-83
2023/01/01 02:13:02;;;;;;;9.00;1.70;;;;;;;14.71;55.41;100759.59;4937008;29;20031;-82
2023/01/01 02:15:33;;;;;;;8.93;1.90;;;;;;;14.72;55.66;100753.06;4904490;29;20408;-83
2023/01/01 02:18:10;;;;;;;8.30;2.00;;;;;;;14.74;55.37;100747.34;4937280;29;20039;-82
2023/01/01 02:20:59;;;;;;;5.10;1.80;;;;;;;14.72;55.75;100761.25;4937153;29;20040;-85
2023/01/01 02:24:05;;;;;;;7.43;1.30;;;;;;;14.70;56.18;100760.69;4918980;29;20038;-83
2023/01/01 02:26:52;;;;;;;6.87;1.90;;;;;;;14.68;55.99;100776.47;4889373;29;20071;-82
2023/01/01 02:29:29;;;;;;;7.43;1.65;;;;;;;14.63;55.82;100762.72;4920076;29;20024;-82
2023/01/01 02:32:10;;;;;;;7.70;1.58;;;;;;;14.62;56.29;100736.50;4919985;29;20042;-82
2023/01/01 02:34:42;;;;;;;7.30;1.63;;;;;;;14.56;55.86;100753.81;4936869;29;20086;-82
2023/01/01 02:37:11;;;;;;;8.63;1.60;;;;;;;14.55;55.80;100765.81;4920261;29;20420;-82
2023/01/01 02:39:41;;;;;;;5.53;1.40;;;;;;;14.53;56.11;100763.31;4919781;29;20032;-82
2023/01/01 02:42:09;;;;;;;9.32;1.50;;;;;;;14.52;56.06;100758.94;4936675;29;20028;-82
2023/01/01 02:44:40;;;;;;;7.95;1.60;;;;;;;14.48;56.57;100768.69;4936855;29;20024;-82
2023/01/01 02:47:09;;;;;;;4.78;1.20;;;;;;;14.54;55.88;100755.94;4919775;29;20035;-83
2023/01/01 02:49:40;;;;;;;5.55;1.23;;;;;;;14.50;56.56;100739.25;4919626;29;20035;-83
2023/01/01 02:52:39;;;;;;;8.50;1.47;;;;;;;14.54;56.71;100766.88;4919260;29;20035;-82
2023/01/01 02:55:38;;;;;;;6.18;1.50;;;;;;;14.51;57.06;100760.03;4916802;29;20042;-82
2023/01/01 03:01:30;;;;;;;8.90;1.45;;;;;;;14.49;57.51;100773.06;4936916;29;20074;-82
2023/01/01 03:04:05;;;;;;;8.00;1.50;;;;;;;14.44;57.60;100783.91;4937142;29;20028;-82
2023/01/01 03:06:41;;;;;;;6.90;1.50;;;;;;;14.39;57.89;100767.41;4919248;29;20042;-83
2023/01/01 03:09:37;;;;;;;3.90;1.23;;;;;;;14.37;58.14;100785.94;4936327;29;20028;-82
2023/01/01 03:12:12;;;;;;;7.53;1.60;;;;;;;14.34;58.39;100783.69;4936866;29;20031;-82
2023/01/01 03:14:52;;;;;;;9.60;1.45;;;;;;;14.42;58.20;100787.94;4919473;29;20118;-82
2023/01/01 03:17:37;;;;;;;7.05;1.30;;;;;;;14.38;58.57;100782.16;4936951;29;20084;-82
2023/01/01 03:20:26;;;;;;;9.33;1.40;;;;;;;14.36;58.37;100790.59;4920002;29;20062;-82
2023/01/01 03:22:56;;;;;;;9.32;1.58;;;;;;;14.43;58.54;100825.09;4919812;29;20039;-82
2023/01/01 03:25:34;;;;;;;10.85;1.45;;;;;;;14.36;58.99;100817.03;4919066;29;20135;-82
2023/01/01 03:28:10;;;;;;;7.40;1.38;;;;;;;14.35;59.16;100788.06;4919501;29;20063;-82
2023/01/01 03:30:38;;;;;;;8.02;1.52;;;;;;;14.30;59.41;100801.63;4936402;29;20042;-83
2023/01/01 03:33:08;;;;;;;8.20;1.87;;;;;;;14.29;59.49;100778.97;4919512;29;20038;-82
2023/01/01 03:35:45;;;;;;;5.70;1.52;;;;;;;14.31;59.29;100779.53;4923242;29;20031;-82
2023/01/01 03:38:17;;;;;;;9.93;2.08;;;;;;;14.29;59.81;100784.44;4923618;29;20035;-83
2023/01/01 03:40:46;;;;;;;5.32;1.42;;;;;;;14.28;59.79;100798.31;4923194;29;20027;-82
2023/01/01 03:43:19;;;;;;;10.18;1.60;;;;;;;14.29;59.91;100789.03;4923191;29;20152;-82
2023/01/01 03:45:49;;;;;;;5.03;1.30;;;;;;;14.25;59.89;100798.81;4939766;29;20034;-83
2023/01/01 03:48:15;;;;;;;8.27;1.50;;;;;;;14.25;60.06;100804.25;4923045;29;20174;-82
2023/01/01 03:51:13;;;;;;;8.73;1.58;;;;;;;14.29;60.44;100799.94;4922987;29;20036;-82
2023/01/01 03:53:41;;;;;;;8.52;1.30;;;;;;;14.23;60.34;100801.75;4923586;29;20066;-82
2023/01/01 03:56:22;;;;;;;4.65;1.52;;;;;;;14.26;60.70;100804.00;4939573;29;20032;-82
2023/01/01 03:59:01;;;;;;;7.23;1.40;;;;;;;14.24;60.81;100799.84;4939845;29;20035;-82
2023/01/01 04:01:32;;;;;;;4.45;1.30;;;;;;;14.26;60.87;100808.63;4923388;29;20028;-82
2023/01/01 04:04:00;;;;;;;5.93;1.40;;;;;;;14.30;60.57;100818.81;4940269;29;20036;-82
2023/01/01 04:06:26;;;;;;;5.50;1.27;;;;;;;14.27;61.04;100830.22;4907279;29;20051;-82
2023/01/01 04:08:56;;;;;;;3.88;1.42;;;;;;;14.24;61.15;100827.16;4940176;29;20067;-81
2023/01/01 04:14:11;;;;;;;9.13;2.05;;;;;;;14.21;61.56;100837.44;4940211;29;20038;-82
2023/01/01 04:16:36;;;;;;;7.80;1.60;;;;;;;14.20;61.67;100833.09;4922127;29;20035;-82
2023/01/01 04:19:02;;;;;;;6.75;1.40;;;;;;;14.22;61.60;100838.31;4922196;29;20027;-82
2023/01/01 04:21:27;;;;;;;6.10;1.53;;;;;;;14.14;62.21;100836.78;4906538;29;20031;-82
2023/01/01 04:23:52;;;;;;;8.27;1.50;;;;;;;14.11;62.14;100815.41;4922128;29;20404;-82
2023/01/01 04:26:18;;;;;;;7.63;1.40;;;;;;;14.20;61.84;100833.09;4921714;29;20416;-83
2023/01/01 04:28:44;;;;;;;7.47;1.40;;;;;;;14.09;62.39;100820.28;4938936;29;20495;-82
2023/01/01 04:31:10;;;;;;;7.13;1.30;;;;;;;14.10;62.66;100816.50;4939285;29;20034;-82
2023/01/01 04:33:36;;;;;;;5.97;1.42;;;;;;;14.07;62.78;100824.31;4906712;29;20039;-82
2023/01/01 04:36:06;;;;;;;5.25;1.30;;;;;;;14.09;62.53;100812.09;4939236;29;20088;-82
2023/01/01 04:38:33;;;;;;;7.30;1.33;;;;;;;14.04;63.15;100844.75;4906789;29;20067;-82
2023/01/01 04:40:59;;;;;;;9.43;1.88;;;;;;;14.00;63.74;100840.81;4938872;29;20035;-82
2023/01/01 04:43:25;;;;;;;6.97;1.40;;;;;;;13.98;63.75;100851.97;4922108;29;20079;-82
2023/01/01 04:45:59;;;;;;;6.28;1.50;;;;;;;14.00;64.23;100852.56;4938208;29;20028;-83
2023/01/01 04:48:25;;;;;;;9.52;1.63;;;;;;;13.98;64.30;100853.84;4938636;29;20064;-82
2023/01/01 04:51:05;;;;;;;7.50;1.60;;;;;;;13.96;64.72;100875.91;4906011;29;20051;-82
2023/01/01 04:53:32;;;;;;;7.13;1.98;;;;;;;13.98;64.80;100870.22;4922592;29;20039;-82
2023/01/01 04:56:04;;;;;;;8.15;2.00;;;;;;;14.01;64.74;100862.41;4938769;29;20045;-82
2023/01/01 04:58:30;;;;;;;6.68;1.38;;;;;;;13.93;65.58;100876.38;4921321;29;20035;-83
2023/01/01 05:00:55;;;;;;;6.97;1.80;;;;;;;13.93;65.42;100864.66;4921583;29;20503;-82
2023/01/01 05:03:21;;;;;;;5.72;1.70;;;;;;;13.95;65.38;100870.69;4921995;29;20071;-82
2023/01/01 05:05:48;;;;;;;6.87;1.40;;;;;;;13.89;65.95;100890.75;4938700;29;20381;-83
2023/01/01 05:08:14;;;;;;;11.57;1.50;;;;;;;13.86;66.01;100897.50;4906490;29;20032;-83
2023/01/01 05:10:40;;;;;;;5.57;1.40;;;;;;;13.82;66.09;100899.88;4905749;29;20040;-82
2023/01/01 05:13:07;;;;;;;6.00;1.70;;;;;;;13.86;66.20;100920.16;4905674;29;20040;-82
2023/01/01 05:15:35;;;;;;;5.68;1.20;;;;;;;13.89;66.09;100899.75;4906057;29;20047;-83
2023/01/01 05:18:00;;;;;;;6.25;1.67;;;;;;;13.81;66.69;100879.13;4921643;29;20126;-82
2023/01/01 05:20:26;;;;;;;6.23;1.40;;;;;;;13.80;67.00;100903.88;4938431;29;20046;-82
2023/01/01 05:22:51;;;;;;;9.93;1.58;;;;;;;13.79;67.05;100899.50;4921363;29;20108;-83
2023/01/01 05:25:17;;;;;;;14.47;2.60;;;;;;;13.77;67.12;100945.28;4921392;29;20477;-83
2023/01/01 05:27:42;;;;;;;10.77;1.53;;;;;;;13.75;67.52;100945.50;4921539;29;20040;-85
2023/01/01 05:30:08;;;;;;;8.03;1.43;;;;;;;13.73;67.82;100946.78;4921496;29;20492;-83
2023/01/01 05:32:36;;;;;;;7.65;1.48;;;;;;;13.72;67.88;100934.25;4905393;29;20444;-82
2023/01/01 05:35:01;;;;;;;5.63;1.30;;;;;;;13.69;68.42;100943.72;4921290;29;20038;-82
2023/01/01 05:37:27;;;;;;;8.10;1.50;;;;;;;13.70;68.28;100939.94;4938089;29;20461;-83
2023/01/01 05:39:52;;;;;;;8.18;1.50;;;;;;;13.69;68.26;100995.53;4905289;29;20121;-82
2023/01/01 05:42:18;;;;;;;10.17;1.83;;;;;;;13.72;68.32;100945.16;4921031;29;20090;-82
2023/01/01 05:44:44;;;;;;;8.23;1.98;;;;;;;13.71;68.37;100949.75;4920487;29;20038;-82
2023/01/01 05:47:10;;;;;;;8.43;1.50;;;;;;;13.65;68.69;100967.88;4920757;29;20114;-83
2023/01/01 05:49:35;;;;;;;9.50;1.83;;;;;;;13.63;68.85;100977.38;4937536;29;20031;-82
2023/01/01 05:52:01;;;;;;;7.20;1.30;;;;;;;13.62;69.13;100970.25;4904868;29;20035;-82
2023/01/01 05:54:26;;;;;;;7.37;1.47;;;;;;;13.60;69.42;100965.03;4937760;29;20067;-82
2023/01/01 05:56:51;;;;;;;6.73;1.70;;;;;;;13.60;69.44;100980.56;4920488;29;20036;-82
2023/01/01 05:59:17;;;;;;;6.97;1.53;;;;;;;13.57;70.13;100989.19;4904736;29;20174;-83
2023/01/01 06:01:42;;;;;;;7.28;1.52;;;;;;;13.54;70.09;100984.19;4904637;29;20052;-82
2023/01/01 06:04:08;;;;;;;7.93;1.50;;;;;;;13.52;70.40;100992.59;4920522;29;20036;-83
2023/01/01 06:06:37;;;;;;;10.38;1.85;;;;;;;13.49;70.26;100993.94;4937026;29;20503;-82
2023/01/01 06:09:04;;;;;;;5.73;1.63;;;;;;;13.54;69.92;101003.28;4920382;29;20043;-83
2023/01/01 06:11:30;;;;;;;5.45;1.52;;;;;;;13.51;70.42;100993.69;4920285;29;20024;-83
2023/01/01 06:13:58;;;;;;;8.77;1.27;;;;;;;13.46;70.27;100999.00;4920482;29;20040;-83
2023/01/01 06:16:25;;;;;;;7.83;1.97;;;;;;;13.48;70.49;101008.59;4937058;29;20114;-82
2023/01/01 06:18:51;;;;;;;9.95;1.98;;;;;;;13.45;70.61;101016.41;4937545;29;20035;-82
2023/01/01 06:21:19;;;;;;;8.75;1.73;;;;;;;13.41;71.39;101010.59;4920799;29;20102;-83
2023/01/01 06:23:45;;;;;;;7.28;1.73;;;;;;;13.43;71.05;101030.25;4920209;29;20035;-82
2023/01/01 06:26:16;;;;;;;6.70;1.60;;;;;;;13.30;72.89;101038.56;4888547;29;20106;-82
2023/01/01 06:28:43;;;;;;;6.50;1.60;;;;;;;12.99;76.34;101083.97;4937199;29;20131;-83
2023/01/01 06:31:10;;;;;;;5.97;1.30;;;;;;;12.58;84.66;101067.22;4920194;29;20046;-82
2023/01/01 06:33:37;;;;;;;4.97;1.30;;;;;;;12.13;88.02;101101.91;4937026;29;20032;-82
2023/01/01 06:36:04;;;;;;;4.38;1.58;;;;;;;11.75;91.94;101079.06;4919886;29;20028;-82
2023/01/01 06:38:35;;;;;;;7.50;1.85;;;;;;;11.40;95.21;101082.19;4919815;29;20019;-83
2023/01/01 06:41:02;;;;;;;6.72;1.38;;;;;;;11.18;96.86;101082.47;4919725;29;20032;-83
2023/01/01 06:43:29;;;;;;;9.30;2.23;;;;;;;11.04;99.55;101097.13;4919482;29;20042;-82
2023/01/01 06:46:03;;;;;;;5.10;2.00;;;;;;;10.85;100.00;101094.25;4936838;29;20032;-81
2023/01/01 06:48:32;;;;;;;9.18;2.80;;;;;;;10.59;100.00;101100.53;4919932;29;20027;-82
2023/01/01 06:50:57;;;;;;;10.07;3.10;;;;;;;10.42;100.00;101094.66;4936690;29;20524;-81
2023/01/01 06:53:24;;;;;;;13.67;3.47;;;;;;;10.22;100.00;101123.66;4903625;29;20175;-81
2023/01/01 06:55:50;;;;;;;8.80;2.95;;;;;;;10.10;100.00;101132.38;4919283;29;20036;-80
2023/01/01 06:58:15;;;;;;;8.90;2.90;;;;;;;10.00;100.00;101130.03;4920542;29;20495;-79
2023/01/01 07:00:42;;;;;;;6.90;2.50;;;;;;;9.95;100.00;101131.69;4919393;29;20038;-80
2023/01/01 07:03:09;;;;;;;8.23;2.92;;;;;;;9.90;100.00;101136.91;4919815;29;20038;-80
2023/01/01 07:05:34;;;;;;;11.75;3.15;;;;;;;9.87;100.00;101146.28;4919333;29;20043;-81
2023/01/01 07:08:00;;;;;;;8.90;2.80;;;;;;;9.86;100.00;101147.28;4918946;29;20468;-81
2023/01/01 07:10:25;;;;;;;8.27;2.27;;;;;;;9.84;100.00;101141.25;4903565;29;20131;-81
2023/01/01 07:12:51;;;;;;;9.70;2.53;;;;;;;9.82;100.00;101148.78;4903441;29;20844;-81
2023/01/01 07:15:16;;;;;;;12.93;2.40;;;;;;;9.83;100.00;101163.97;4919618;29;20038;-81
2023/01/01 07:17:41;;;;;;;10.77;2.17;;;;;;;9.77;100.00;101154.81;4919263;29;20036;-81
2023/01/01 07:20:07;;;;;;;10.20;2.20;;;;;;;9.71;100.00;101152.88;4903459;29;20034;-79
2023/01/01 07:22:34;;;;;;;8.52;1.50;;;;;;;9.62;100.00;101146.78;4936365;29;20087;-80
2023/01/01 07:25:00;;;;;;;6.13;1.15;;;;;;;9.55;100.00;101147.81;4919219;29;20028;-80
2023/01/01 07:27:25;;;;;;;7.47;1.50;;;;;;;9.50;100.00;101161.13;4903454;29;20056;-81
2023/01/01 07:29:50;;;;;;;7.20;1.20;;;;;;;9.44;100.00;101157.34;4903692;29;20047;-82
2023/01/01 07:32:16;;;;;;;8.37;1.47;;;;;;;9.39;100.00;101162.50;4903940;29;20063;-81
2023/01/01 07:34:41;;;;;;;7.73;1.23;;;;;;;9.37;100.00;101167.31;4919270;29;20385;-82
2023/01/01 07:37:06;;;;;;;5.65;0.90;;;;;;;9.40;100.00;101180.44;4936311;29;20346;-80
2023/01/01 07:39:32;;;;;;;6.37;1.40;;;;;;;9.36;100.00;101188.16;4903418;29;20392;-79
2023/01/01 07:41:57;;;;;;;7.30;0.90;;;;;;;9.36;100.00;101180.03;4936638;29;20086;-79
2023/01/01 07:44:23;;;;;;;6.73;1.30;;;;;;;9.35;100.00;101183.75;4888219;29;20048;-80
2023/01/01 07:46:48;;;;;;;6.37;1.47;;;;;;;9.33;100.00;101187.69;4936507;29;20061;-80
2023/01/01 07:49:13;;;;;;;12.07;1.77;;;;;;;9.34;100.00;101200.19;4919298;29;20552;-80
2023/01/01 07:51:39;;;;;;;13.47;1.57;;;;;;;9.34;100.00;101200.19;4903340;29;20062;-80
2023/01/01 07:54:04;;;;;;;6.73;1.60;;;;;;;9.34;100.00;101205.63;4903521;29;20493;-80
2023/01/01 07:56:29;;;;;;;7.87;1.53;;;;;;;9.33;100.00;101209.34;4919714;29;20028;-80
2023/01/01 07:58:55;;;;;;;11.07;1.60;;;;;;;9.34;100.00;101211.03;4918985;29;20110;-80
2023/01/01 08:01:20;;;;;;;10.13;1.77;;;;;;;9.34;100.00;101219.16;4919306;29;20059;-80
2023/01/01 08:03:50;;;;;;;11.65;2.78;;;;;;;9.35;100.00;101239.78;4919095;29;20091;-79
2023/01/01 08:06:16;;;;;;;10.63;1.70;;;;;;;9.37;100.00;101254.78;4919360;29;20027;-80
2023/01/01 08:08:41;;;;;;;9.27;1.67;;;;;;;9.37;100.00;101262.09;4936358;29;20472;-80
2023/01/01 08:11:07;;;;;;;11.27;1.93;;;;;;;9.38;100.00;101261.06;4919371;29;20047;-80
2023/01/01 08:13:33;;;;;;;9.88;1.48;;;;;;;9.39;100.00;101265.41;4936076;29;20036;-80
2023/01/01 08:15:58;;;;;;;7.75;1.73;;;;;;;9.39;100.00;101254.59;4936016;29;20468;-80
2023/01/01 08:18:24;;;;;;;9.03;2.17;;;;;;;9.40;100.00;101270.63;4919061;29;20040;-80
2023/01/01 08:20:50;;;;;;;11.65;1.95;;;;;;;9.41;100.00;101261.50;4920952;29;20035;-81
2023/01/01 08:23:15;;;;;;;6.87;1.57;;;;;;;9.41;100.00;101252.53;4906283;29;20039;-81
2023/01/01 08:25:40;;;;;;;10.07;1.43;;;;;;;9.42;100.00;101259.59;4921931;29;20051;-81
2023/01/01 08:28:06;;;;;;;12.20;1.97;;;;;;;9.41;100.00;101268.78;4939138;29;20118;-80
2023/01/01 08:30:31;;;;;;;11.40;2.40;;;;;;;9.39;100.00;101266.28;4922582;29;20620;-80
2023/01/01 08:32:57;;;;;;;11.43;2.20;;;;;;;9.41;100.00;101268.78;4939042;29;20481;-81
2023/01/01 08:35:22;;;;;;;11.83;2.10;;;;;;;9.41;100.00;101275.03;4922367;29;20054;-81
2023/01/01 08:37:47;;;;;;;12.27;2.73;;;;;;;9.42;100.00;101265.88;4939929;29;20127;-80
2023/01/01 08:40:13;;;;;;;8.27;1.80;;;;;;;9.45;100.00;101289.03;4921772;29;20046;-82
2023/01/01 08:42:39;;;;;;;9.13;1.73;;;;;;;9.44;100.00;101285.47;4922504;29;20028;-79
2023/01/01 08:45:05;;;;;;;11.85;2.03;;;;;;;9.45;100.00;101300.69;4922393;29;20043;-79
2023/01/01 08:47:30;;;;;;;9.00;1.90;;;;;;;9.46;100.00;101296.09;4922314;29;20465;-80
2023/01/01 08:49:57;;;;;;;11.47;1.93;;;;;;;9.46;100.00;101280.72;4890562;29;20036;-80
2023/01/01 08:52:22;;;;;;;10.30;1.80;;;;;;;9.46;100.00;101287.97;4938864;29;20287;-80
2023/01/01 08:54:47;;;;;;;12.43;2.30;;;;;;;9.46;100.00;101293.41;4921480;29;20039;-80
2023/01/01 08:57:13;;;;;;;14.55;2.40;;;;;;;9.47;100.00;101314.88;4938835;29;20083;-82
2023/01/01 08:59:39;;;;;;;14.63;2.50;;;;;;;9.47;100.00;101311.34;4921632;29;20472;-80
2023/01/01 09:02:05;;;;;;;11.02;2.22;;;;;;;9.50;100.00;101305.53;4938964;29;20036;-80
2023/01/01 09:04:30;;;;;;;11.30;2.25;;;;;;;9.51;100.00;101293.66;4921744;29;20035;-81
2023/01/01 09:06:56;;;;;;;11.57;2.13;;;;;;;9.50;100.00;101278.44;4939083;29;20040;-80
2023/01/01 09:09:21;;;;;;;12.97;2.20;;;;;;;9.54;100.00;101295.13;4938903;29;20039;-80
2023/01/01 09:11:55;;;;;;;16.37;2.20;;;;;;;9.58;100.00;101299.09;4906565;29;20042;-80
2023/01/01 09:14:21;;;;;;;14.88;2.40;;;;;;;9.63;100.00;101307.50;4921734;29;20539;-80
2023/01/01 09:16:47;;;;;;;12.88;2.35;;;;;;;9.64;100.00;101311.84;4938491;29;20109;-80
2023/01/01 09:19:13;;;;;;;10.80;2.27;;;;;;;9.64;100.00;101319.97;4921873;29;20032;-80
2023/01/01 09:21:38;;;;;;;11.25;2.38;;;;;;;9.63;100.00;101312.91;4921325;29;20040;-80
2023/01/01 09:24:04;;;;;;;10.60;2.30;;;;;;;9.60;100.00;101300.59;4921141;29;20038;-80
2023/01/01 09:26:29;;;;;;;10.83;2.80;;;;;;;9.59;100.00;101304.31;4917633;29;20052;-80
2023/01/01 09:28:55;;;;;;;16.53;2.50;;;;;;;9.60;100.00;101314.13;4918327;29;20033;-80
2023/01/01 09:31:20;;;;;;;12.23;2.70;;;;;;;9.60;100.00;101306.00;4919006;29;20753;-80
2023/01/01 09:33:45;;;;;;;12.70;2.30;;;;;;;9.62;100.00;101320.19;4917504;29;20036;-80
2023/01/01 09:36:27;;;;;;;20.90;3.13;;;;;;;9.62;100.00;101316.66;4917401;29;20119;-80
2023/01/01 09:38:56;;;;;;;15.85;2.42;;;;;;;9.65;100.00;101327.09;4918117;29;20469;-80
2023/01/01 09:41:27;;;;;;;14.80;3.13;;;;;;;9.65;100.00;101330.66;4919315;29;20099;-80
2023/01/01 09:44:14;;;;;;;17.67;2.80;;;;;;;9.66;100.00;101323.34;4919221;29;20096;-80
2023/01/01 09:46:39;;;;;;;14.30;3.15;;;;;;;9.61;100.00;101315.81;4918171;29;20028;-80
2023/01/01 09:49:21;;;;;;;11.43;2.80;;;;;;;9.59;100.00;101322.47;4901891;29;20539;-80
2023/01/01 09:51:53;;;;;;;12.77;3.00;;;;;;;9.60;100.00;101316.03;4919090;29;20115;-80
2023/01/01 09:54:27;;;;;;;17.77;3.97;;;;;;;9.58;100.00;101328.91;4917498;29;20084;-80
2023/01/01 09:56:57;;;;;;;19.25;4.03;;;;;;;9.60;100.00;101327.69;4919036;29;20036;-80
2023/01/01 09:59:23;;;;;;;15.20;3.47;;;;;;;9.62;100.00;101332.91;4919058;29;20040;-80
2023/01/01 10:01:52;;;;;;;11.93;3.77;;;;;;;9.62;100.00;101316.66;4917403;29;20036;-80
2023/01/01 10:04:46;;;;;;;11.00;3.63;;;;;;;9.60;100.00;101322.25;4918585;29;20128;-81
2023/01/01 10:07:40;;;;;;;11.23;3.17;;;;;;;9.58;100.00;101323.50;4908434;29;20080;-81
2023/01/01 10:10:33;;;;;;;16.83;3.97;;;;;;;9.57;100.00;101319.13;4917360;29;20038;-80
2023/01/01 10:13:21;;;;;;;14.73;3.65;;;;;;;9.57;100.00;101322.66;4918510;29;20028;-80
2023/01/01 10:15:57;;;;;;;9.60;3.30;;;;;;;9.61;100.00;101318.53;4918185;29;20039;-80
2023/01/01 10:18:28;;;;;;;13.48;3.55;;;;;;;9.63;100.00;101321.03;4918630;29;20035;-80
2023/01/01 10:21:26;;;;;;;15.38;3.47;;;;;;;9.64;100.00;101319.97;4916751;29;20056;-80
2023/01/01 10:23:56;;;;;;;15.93;3.67;;;;;;;9.70;100.00;101326.50;4912564;29;20051;-80
2023/01/01 10:26:26;;;;;;;16.27;3.60;;;;;;;9.73;100.00;101318.81;4918166;29;20132;-80
2023/01/01 10:29:22;;;;;;;19.30;3.70;;;;;;;9.76;100.00;101325.72;4917862;29;20036;-80
2023/01/01 10:31:49;;;;;;;15.77;3.30;;;;;;;9.77;100.00;101330.09;4917036;29;20115;-80
2023/01/01 10:34:14;;;;;;;13.80;3.83;;;;;;;9.81;100.00;101329.47;4917066;29;20036;-80
2023/01/01 10:36:41;;;;;;;11.40;3.27;;;;;;;9.84;100.00;101331.78;4916881;29;20385;-80
2023/01/01 10:39:13;;;;;;;14.48;3.17;;;;;;;9.91;100.00;101334.56;4917628;29;20032;-80
2023/01/01 10:41:38;;;;;;;14.00;3.58;;;;;;;9.93;100.00;101321.63;4917919;29;20035;-80
2023/01/01 10:44:05;;;;;;;11.27;2.80;;;;;;;9.96;100.00;101323.94;4884482;29;20036;-80
2023/01/01 10:46:30;;;;;;;7.50;2.92;;;;;;;10.03;100.00;101320.47;4916334;29;20036;-80
2023/01/01 10:49:11;;;;;;;11.20;2.70;;;;;;;10.09;100.00;101327.78;4916882;29;20091;-80
2023/01/01 10:51:45;;;;;;;13.77;2.90;;;;;;;10.13;100.00;101320.94;4916353;29;20024;-81
2023/01/01 10:54:35;;;;;;;10.95;2.60;;;;;;;10.19;100.00;101323.66;4916416;29;20467;-80
2023/01/01 10:57:19;;;;;;;11.60;2.78;;;;;;;10.22;100.00;101311.59;4917549;29;20036;-80
2023/01/01 10:59:44;;;;;;;16.70;2.97;;;;;;;10.29;100.00;101317.88;4917710;29;20028;-80
2023/01/01 11:02:26;;;;;;;11.37;2.60;;;;;;;10.37;100.00;101327.72;4916404;29;20032;-80
2023/01/01 11:05:11;;;;;;;15.73;2.60;;;;;;;10.46;100.00;101333.81;4916277;29;20389;-80
2023/01/01 11:07:43;;;;;;;10.88;1.98;;;;;;;10.57;100.00;101326.97;4917660;29;20064;-81
2023/01/01 11:10:24;;;;;;;12.45;2.60;;;;;;;10.68;100.00;101329.94;4916603;29;20032;-81
2023/01/01 11:12:52;;;;;;;12.95;2.63;;;;;;;10.85;100.00;101330.41;4917803;29;20036;-81
2023/01/01 11:15:32;;;;;;;11.83;2.30;;;;;;;10.97;100.00;101338.78;4900774;29;20072;-80
2023/01/01 11:18:04;;;;;;;11.63;2.45;;;;;;;11.14;100.00;101341.09;4917850;29;20032;-80
2023/01/01 11:20:31;;;;;;;10.60;2.47;;;;;;;11.26;100.00;101336.72;4916132;29;20024;-89
2023/01/01 11:22:56;;;;;;;11.63;1.88;;;;;;;11.36;100.00;101352.59;4915792;29;20032;-80
2023/01/01 11:25:26;;;;;;;12.97;2.43;;;;;;;11.45;100.00;101361.38;4917226;29;20036;-81
2023/01/01 11:27:52;;;;;;;13.15;2.35;;;;;;;11.55;100.00;101346.34;4917223;29;20043;-81
2023/01/01 11:30:25;;;;;;;12.90;2.40;;;;;;;11.66;100.00;101347.59;4916115;29;20389;-81
2023/01/01 11:32:56;;;;;;;11.90;2.42;;;;;;;11.75;100.00;101345.47;4917550;29;20460;-80
2023/01/01 11:35:29;;;;;;;13.50;1.83;;;;;;;11.84;100.00;101343.38;4916486;29;20024;-80
2023/01/01 11:37:56;;;;;;;15.18;2.58;;;;;;;11.95;100.00;101345.47;4917042;29;20087;-81
2023/01/01 11:40:26;;;;;;;10.63;1.88;;;;;;;12.05;100.00;101340.44;4915857;29;20036;-81